createdAt,value
2022-09-06T00:04:39.462Z,97953.39
2022-09-06T00:07:28.463Z,97951.83
2022-09-06T00:10:15.860Z,97952.85
2022-09-06T00:22:44.640Z,97941.36
2022-09-06T00:25:51.585Z,97945.21
2022-09-06T00:28:21.857Z,97941.77
2022-09-06T00:31:45.907Z,97940.77
2022-09-06T00:34:16.326Z,97942.15
2022-09-06T00:37:21.979Z,97939.50
2022-09-06T00:39:52.569Z,97939.89
2022-09-06T00:42:22.495Z,97937.65
2022-09-06T00:44:52.984Z,97936.45
2022-09-06T00:47:58.005Z,97934.80
2022-09-06T00:50:48.539Z,97937.52
2022-09-06T00:53:54.823Z,97934.58
2022-09-06T00:56:45.638Z,97934.38
2022-09-06T00:59:16.629Z,97936.55
2022-09-06T01:12:05.946Z,97938.15
2022-09-06T01:14:52.323Z,97935.27
2022-09-06T01:17:53.494Z,97933.00
2022-09-06T01:21:12.467Z,97933.73
2022-09-06T01:24:34.821Z,97934.59
2022-09-06T01:27:54.091Z,97937.88
2022-09-06T01:30:50.127Z,97936.13
2022-09-06T01:33:46.123Z,97931.83
2022-09-06T01:36:49.774Z,97929.91
2022-09-06T01:39:52.178Z,97927.03
2022-09-06T01:46:58.737Z,97927.33
2022-09-06T01:50:40.973Z,97927.17
2022-09-06T01:53:19.433Z,97931.41
2022-09-06T01:55:58.472Z,97936.17
2022-09-06T02:05:46.414Z,97934.04
2022-09-06T02:08:22.353Z,97931.38
2022-09-06T02:15:21.049Z,97929.95
2022-09-06T02:18:12.030Z,97926.72
2022-09-06T02:21:18.427Z,97925.98
2022-09-06T02:24:31.386Z,97928.58
2022-09-06T02:27:04.056Z,97926.23
2022-09-06T02:29:34.139Z,97925.22
2022-09-06T02:32:23.667Z,97920.38
2022-09-06T02:34:55.206Z,97914.20
2022-09-06T02:38:19.067Z,97914.02
2022-09-06T02:41:27.168Z,97913.02
2022-09-06T02:44:16.542Z,97912.55
2022-09-06T02:47:05.726Z,97911.02
2022-09-06T02:49:34.840Z,97912.30
2022-09-06T02:52:23.391Z,97913.33
2022-09-06T02:54:53.280Z,97915.35
2022-09-06T02:58:00.612Z,97913.14
2022-09-06T03:01:07.579Z,97911.88
2022-09-06T03:07:03.242Z,97905.81
2022-09-06T03:09:51.241Z,97910.40
2022-09-06T03:12:38.473Z,97914.05
2022-09-06T03:15:36.794Z,97915.12
2022-09-06T03:18:43.037Z,97913.89
2022-09-06T03:25:53.307Z,97909.43
2022-09-06T03:28:23.671Z,97906.67
2022-09-06T03:34:55.309Z,97908.77
2022-09-06T03:37:42.642Z,97905.64
2022-09-06T03:43:36.649Z,97912.15
2022-09-06T03:46:42.733Z,97915.39
2022-09-06T03:52:55.601Z,97913.71
2022-09-06T03:55:43.624Z,97913.36
2022-09-06T03:58:18.483Z,97914.34
2022-09-06T04:01:05.073Z,97912.65
2022-09-06T04:04:13.342Z,97913.09
2022-09-06T04:06:42.542Z,97911.98
2022-09-06T04:09:11.880Z,97907.06
2022-09-06T04:11:45.015Z,97902.26
2022-09-06T04:14:34.201Z,97903.98
2022-09-06T04:17:21.375Z,97901.76
2022-09-06T04:20:10.174Z,97901.40
2022-09-06T04:22:39.864Z,97907.77
2022-09-06T04:26:05.623Z,97911.35
2022-09-06T04:28:53.457Z,97910.64
2022-09-06T04:34:49.116Z,97911.42
2022-09-06T04:37:19.556Z,97912.86
2022-09-06T04:39:49.377Z,97914.77
2022-09-06T04:42:55.012Z,97922.25
2022-09-06T04:46:01.811Z,97921.29
2022-09-06T04:48:30.930Z,97923.63
2022-09-06T04:57:51.358Z,97936.23
2022-09-06T05:03:56.606Z,97940.73
2022-09-06T05:06:45.168Z,97939.41
2022-09-06T05:10:09.729Z,97940.30
2022-09-06T08:28:31.535Z,97947.33
2022-09-06T08:31:08.114Z,97946.58
2022-09-06T09:26:49.484Z,97923.02
2022-09-06T09:29:27.491Z,97920.65
2022-09-06T09:31:58.136Z,97915.72
2022-09-06T09:34:34.350Z,97914.52
2022-09-06T09:49:09.187Z,97895.06
2022-09-06T09:51:42.417Z,97889.48
2022-09-06T09:54:14.632Z,97889.65
2022-09-06T09:56:49.915Z,97885.27
2022-09-06T09:59:25.288Z,97883.58
2022-09-06T10:01:59.444Z,97880.11
2022-09-06T10:04:46.986Z,97875.45
2022-09-06T10:07:18.903Z,97871.31
2022-09-06T10:09:49.619Z,97873.88
2022-09-06T10:12:29.958Z,97875.57
2022-09-06T10:15:04.903Z,97868.63
2022-09-06T10:17:37.845Z,97872.22
2022-09-06T10:20:10.197Z,97869.59
2022-09-06T10:22:51.709Z,97865.99
2022-09-06T10:25:44.038Z,97867.44
2022-09-06T10:28:34.212Z,97864.28
2022-09-06T10:31:37.378Z,97866.05
2022-09-06T10:34:32.470Z,97862.05
2022-09-06T10:37:17.033Z,97862.32
2022-09-06T10:39:55.768Z,97856.31
2022-09-06T10:42:36.017Z,97858.81
2022-09-06T10:45:28.230Z,97849.95
2022-09-06T10:48:02.285Z,97850.84
2022-09-06T10:50:37.270Z,97844.71
2022-09-06T10:53:56.618Z,97842.13
2022-09-06T10:56:33.694Z,97841.80
2022-09-06T11:02:18.788Z,97832.16
2022-09-06T11:10:45.168Z,97829.69
2022-09-06T11:13:17.842Z,97824.67
2022-09-06T11:15:54.747Z,97821.41
2022-09-06T11:18:29.816Z,97818.92
2022-09-06T11:21:20.077Z,97820.11
2022-09-06T11:23:54.898Z,97817.89
2022-09-06T11:26:37.220Z,97811.11
2022-09-06T11:29:10.509Z,97812.36
2022-09-06T11:34:53.241Z,97806.20
2022-09-06T11:37:32.115Z,97803.59
2022-09-06T11:43:15.938Z,97799.50
2022-09-06T11:45:50.372Z,97804.39
2022-09-06T11:48:43.014Z,97800.38
2022-09-06T11:51:30.731Z,97796.88
2022-09-06T11:54:15.455Z,97797.73
2022-09-06T11:56:53.355Z,97797.54
2022-09-06T11:59:38.116Z,97795.97
2022-09-06T12:02:32.759Z,97793.73
2022-09-06T12:05:29.752Z,97795.41
2022-09-06T12:08:31.988Z,97793.58
2022-09-06T12:11:22.692Z,97787.05
2022-09-06T12:14:03.284Z,97779.94
2022-09-06T12:17:06.742Z,97781.10
2022-09-06T12:19:48.813Z,97780.83
2022-09-06T12:22:54.584Z,97779.91
2022-09-06T12:25:54.341Z,97777.09
2022-09-06T12:28:47.289Z,97777.58
2022-09-06T12:31:42.474Z,97768.86
2022-09-06T12:34:20.445Z,97772.67
2022-09-06T12:37:01.677Z,97768.50
2022-09-06T12:39:32.861Z,97766.35
2022-09-06T12:42:04.778Z,97762.84
2022-09-06T12:44:39.037Z,97764.46
2022-09-06T12:47:16.166Z,97764.00
2022-09-06T12:49:45.825Z,97760.52
2022-09-06T12:52:20.698Z,97759.42
2022-09-06T12:54:51.531Z,97756.55
2022-09-06T12:57:23.927Z,97753.70
2022-09-06T12:59:55.339Z,97747.22
2022-09-06T13:02:32.745Z,97744.99
2022-09-06T13:05:06.669Z,97742.62
2022-09-06T13:07:39.841Z,97736.48
2022-09-06T13:10:13.714Z,97732.09
2022-09-06T13:12:46.706Z,97729.11
2022-09-06T13:15:20.411Z,97725.07
2022-09-06T13:17:50.016Z,97716.21
2022-09-06T13:20:28.823Z,97713.37
2022-09-06T13:23:10.674Z,97704.50
2022-09-06T13:25:50.294Z,97700.27
2022-09-06T13:28:29.084Z,97700.08
2022-09-06T13:31:09.326Z,97695.70
2022-09-06T13:33:40.274Z,97686.94
2022-09-06T13:36:20.926Z,97685.20
2022-09-06T13:38:50.610Z,97679.75
2022-09-06T13:41:40.317Z,97678.10
2022-09-06T13:44:29.185Z,97672.69
2022-09-06T13:46:59.860Z,97666.17
2022-09-06T13:49:28.767Z,97667.34
2022-09-06T13:52:03.032Z,97663.37
2022-09-06T13:54:36.136Z,97662.95
2022-09-06T13:57:06.125Z,97663.59
2022-09-06T13:59:34.866Z,97661.16
2022-09-06T14:02:08.763Z,97660.70
2022-09-06T14:04:39.231Z,97658.23
2022-09-06T14:07:08.345Z,97656.17
2022-09-06T14:09:37.482Z,97655.34
2022-09-06T14:12:07.227Z,97654.91
2022-09-06T14:14:36.609Z,97656.61
2022-09-06T14:17:06.793Z,97652.16
2022-09-06T14:19:35.605Z,97660.71
2022-09-06T14:22:06.323Z,97656.84
2022-09-06T14:24:35.412Z,97656.61
2022-09-06T14:27:06.717Z,97652.45
2022-09-06T14:30:07.154Z,97653.67
2022-09-06T14:32:46.805Z,97654.05
2022-09-06T14:35:16.398Z,97654.77
2022-09-06T14:37:46.449Z,97653.77
2022-09-06T14:40:15.622Z,97649.52
2022-09-06T14:42:47.588Z,97652.88
2022-09-06T14:45:20.639Z,97654.58
2022-09-06T14:47:50.645Z,97654.35
2022-09-06T14:50:19.332Z,97655.23
2022-09-06T14:52:49.482Z,97649.02
2022-09-06T14:55:19.787Z,97646.33
2022-09-06T14:57:50.744Z,97644.46
2022-09-06T15:00:20.131Z,97637.85
2022-09-06T15:03:39.504Z,97641.23
2022-09-06T15:10:06.594Z,97627.33
2022-09-06T15:13:09.704Z,97626.15
2022-09-06T15:16:09.283Z,97625.48
2022-09-06T15:21:23.090Z,97615.30
2022-09-06T15:27:05.513Z,97614.02
2022-09-06T15:33:02.766Z,97609.02
2022-09-06T16:02:21.978Z,97611.80
2022-09-06T16:05:19.613Z,97613.01
2022-09-06T16:11:36.051Z,97606.87
2022-09-06T16:14:34.509Z,97602.98
2022-09-06T16:29:26.850Z,97601.75
2022-09-06T16:38:09.105Z,97592.27
2022-09-06T16:40:58.525Z,97593.81
2022-09-06T16:43:27.993Z,97600.78
2022-09-06T16:46:41.207Z,97599.29
2022-09-06T16:49:40.592Z,97598.86
2022-09-06T16:58:48.070Z,97586.59
2022-09-06T17:01:51.858Z,97583.11
2022-09-06T17:11:01.015Z,97590.56
2022-09-06T17:13:45.637Z,97585.23
2022-09-06T17:19:59.462Z,97593.88
2022-09-06T17:30:04.451Z,97603.17
2022-09-06T17:33:01.660Z,97610.05
2022-09-06T17:36:33.079Z,97611.91
2022-09-06T17:39:34.231Z,97610.82
2022-09-06T17:42:18.642Z,97614.05
2022-09-06T17:57:53.244Z,97612.91
2022-09-06T18:07:21.633Z,97622.97
2022-09-06T18:28:45.487Z,97648.95
2022-09-06T18:31:31.592Z,97651.14
2022-09-06T18:34:29.529Z,97658.81
2022-09-06T18:40:27.140Z,97662.71
2022-09-06T18:49:23.433Z,97672.84
2022-09-06T18:55:06.904Z,97677.75
2022-09-06T18:58:04.493Z,97677.28
2022-09-06T19:10:29.524Z,97678.64
2022-09-06T19:19:26.674Z,97680.20
2022-09-06T19:45:09.195Z,97689.23
2022-09-06T19:47:52.490Z,97692.27
2022-09-06T19:57:18.931Z,97699.88
2022-09-06T20:00:17.642Z,97687.07
2022-09-06T20:03:00.497Z,97678.47
2022-09-06T20:05:44.227Z,97674.34
2022-09-06T20:12:09.838Z,97662.59
2022-09-06T20:18:09.721Z,97654.14
2022-09-06T20:27:46.368Z,97655.40
2022-09-06T20:33:28.950Z,97653.59
2022-09-06T20:36:27.029Z,97650.37
2022-09-06T20:39:25.722Z,97649.08
2022-09-06T20:42:10.802Z,97644.28
2022-09-06T21:00:31.633Z,97645.48
2022-09-06T21:03:44.208Z,97649.58
2022-09-06T21:09:57.443Z,97651.05
2022-09-06T21:13:09.670Z,97648.30
2022-09-06T21:16:24.663Z,97641.75
2022-09-06T21:26:08.656Z,97643.92
2022-09-06T21:35:19.909Z,97640.88
2022-09-06T21:38:02.791Z,97646.99
2022-09-06T21:44:15.992Z,97651.70
2022-09-06T21:56:38.032Z,97638.21
2022-09-06T22:13:25.025Z,97632.32
2022-09-06T22:16:37.502Z,97632.83
2022-09-06T22:20:03.946Z,97631.44
2022-09-06T22:22:47.330Z,97627.38
2022-09-06T22:29:10.314Z,97634.27
2022-09-06T22:38:04.507Z,97639.55
2022-09-06T22:40:33.473Z,97638.92
2022-09-06T22:53:26.587Z,97657.20
2022-09-06T23:06:00.748Z,97663.98
2022-09-06T23:08:59.339Z,97666.66
2022-09-06T23:15:24.280Z,97666.59
2022-09-06T23:21:05.651Z,97663.46
2022-09-06T23:27:31.115Z,97662.39
2022-09-06T23:30:43.180Z,97663.92
2022-09-06T23:33:55.781Z,97658.76
2022-09-06T23:36:39.887Z,97657.54
2022-09-06T23:42:21.265Z,97664.92
2022-09-06T23:45:05.378Z,97662.99
2022-09-06T23:47:48.207Z,97662.80
